Time;durP1;ratioP1;P1;durP2;ratioP2;P2;SDS_P1;SDS_P2;PMS_P1;PMS_P2;Temp;Humidity;BMP_temperature;BMP_pressure;BME280_temperature;BME280_humidity;BME280_pressure;Samples;Min_cycle;Max_cycle;Signal;HPM_P1;HPM_P2
2022/08/07 00:00:13;;;;;;;2.08;1.02;;;;;;;;;;5085292;28;20269;-68
2022/08/07 00:02:38;;;;;;;2.78;1.10;;;;;;;;;;5091508;28;20041;-69
2022/08/07 00:05:03;;;;;;;9.80;1.10;;;;;;;;;;5088552;28;20012;-68
2022/08/07 00:07:28;;;;;;;2.65;1.10;;;;;;;;;;5082520;28;20119;-69
2022/08/07 00:09:54;;;;;;;4.43;1.20;;;;;;;;;;5087008;28;20031;-68
2022/08/07 00:12:19;;;;;;;2.47;1.30;;;;;;;;;;5092869;28;20262;-68
2022/08/07 00:14:44;;;;;;;2.17;1.10;;;;;;;;;;5088972;28;20028;-68
2022/08/07 00:17:09;;;;;;;2.07;0.80;;;;;;;;;;5092186;28;20024;-68
2022/08/07 00:19:34;;;;;;;1.40;0.90;;;;;;;;;;5089851;28;20298;-68
2022/08/07 00:22:00;;;;;;;2.10;0.90;;;;;;;;;;5084712;28;20300;-69
2022/08/07 00:24:25;;;;;;;2.97;0.95;;;;;;;;;;5088961;28;20024;-68
2022/08/07 00:26:51;;;;;;;1.77;1.10;;;;;;;;;;5093591;28;20484;-68
2022/08/07 00:29:17;;;;;;;5.50;0.90;;;;;;;;;;5089243;28;20624;-68
2022/08/07 00:31:43;;;;;;;3.65;1.40;;;;;;;;;;5093354;28;20054;-68
2022/08/07 00:34:08;;;;;;;1.67;0.97;;;;;;;;;;5085014;28;20048;-68
2022/08/07 00:36:33;;;;;;;3.25;1.20;;;;;;;;;;5093651;28;20734;-68
2022/08/07 00:38:59;;;;;;;4.17;1.03;;;;;;;;;;5085807;28;20020;-68
2022/08/07 00:41:25;;;;;;;2.67;0.88;;;;;;;;;;5086213;28;20773;-68
2022/08/07 00:43:50;;;;;;;2.42;0.90;;;;;;;;;;5089986;28;20028;-67
2022/08/07 00:46:15;;;;;;;2.53;1.03;;;;;;;;;;5090411;28;20111;-70
2022/08/07 00:48:41;;;;;;;5.13;1.13;;;;;;;;;;5087193;28;20642;-69
2022/08/07 00:51:07;;;;;;;2.37;0.90;;;;;;;;;;5084351;28;20282;-70
2022/08/07 00:53:32;;;;;;;1.60;0.93;;;;;;;;;;5088716;28;20328;-70
2022/08/07 00:55:57;;;;;;;5.28;1.13;;;;;;;;;;5084496;28;20052;-66
2022/08/07 00:58:22;;;;;;;2.30;1.08;;;;;;;;;;5089482;28;20581;-70
2022/08/07 01:00:48;;;;;;;3.28;1.20;;;;;;;;;;5084276;28;20480;-70
2022/08/07 01:03:13;;;;;;;1.77;1.10;;;;;;;;;;5085913;28;20043;-68
2022/08/07 01:05:39;;;;;;;2.08;1.10;;;;;;;;;;5089052;28;20035;-70
2022/08/07 01:08:04;;;;;;;4.88;1.02;;;;;;;;;;5085269;28;20020;-70
2022/08/07 01:10:30;;;;;;;3.53;1.15;;;;;;;;;;5086028;28;20024;-70
2022/08/07 01:12:55;;;;;;;1.50;0.93;;;;;;;;;;5088949;28;20472;-70
2022/08/07 01:15:22;;;;;;;1.67;1.08;;;;;;;;;;5086411;28;20020;-67
2022/08/07 01:17:47;;;;;;;2.65;1.05;;;;;;;;;;5080113;28;21924;-69
2022/08/07 01:20:15;;;;;;;1.30;0.80;;;;;;;;;;5084630;28;20099;-70
2022/08/07 01:22:40;;;;;;;2.85;1.10;;;;;;;;;;5085922;28;20020;-70
2022/08/07 01:25:07;;;;;;;1.17;0.80;;;;;;;;;;5088235;28;20026;-69
2022/08/07 01:27:32;;;;;;;4.43;1.50;;;;;;;;;;5086548;28;20023;-67
2022/08/07 01:29:57;;;;;;;2.80;1.23;;;;;;;;;;5088915;28;20492;-70
2022/08/07 01:32:22;;;;;;;8.55;1.77;;;;;;;;;;5088897;28;20384;-69
2022/08/07 01:34:48;;;;;;;4.63;1.70;;;;;;;;;;5084204;28;20376;-70
2022/08/07 01:37:16;;;;;;;4.30;1.13;;;;;;;;;;5088943;28;20091;-70
2022/08/07 01:39:41;;;;;;;2.50;1.50;;;;;;;;;;5080735;28;20023;-70
2022/08/07 01:42:06;;;;;;;3.33;1.40;;;;;;;;;;5083100;28;20024;-69
2022/08/07 01:44:32;;;;;;;7.75;1.30;;;;;;;;;;5087990;28;20439;-68
2022/08/07 01:46:57;;;;;;;3.72;1.30;;;;;;;;;;5054207;28;1052968;-68
2022/08/07 01:49:22;;;;;;;9.85;1.67;;;;;;;;;;5087319;28;20032;-66
2022/08/07 01:51:48;;;;;;;6.57;1.58;;;;;;;;;;5090063;28;20023;-68
2022/08/07 01:54:13;;;;;;;2.72;1.20;;;;;;;;;;5085261;28;20028;-68
2022/08/07 01:56:44;;;;;;;4.05;1.55;;;;;;;;;;5086398;28;20082;-70
2022/08/07 01:59:23;;;;;;;4.57;1.77;;;;;;;;;;5087694;28;20039;-69
2022/08/07 02:01:51;;;;;;;2.15;1.40;;;;;;;;;;5086931;28;20047;-69
2022/08/07 02:04:24;;;;;;;2.47;1.20;;;;;;;;;;5083110;28;20018;-67
2022/08/07 02:06:50;;;;;;;3.45;1.27;;;;;;;;;;5081324;28;20082;-67
2022/08/07 02:09:17;;;;;;;2.38;0.80;;;;;;;;;;5085385;28;20024;-68
2022/08/07 02:11:43;;;;;;;4.90;1.42;;;;;;;;;;5086681;28;20047;-67
2022/08/07 02:14:09;;;;;;;2.25;1.20;;;;;;;;;;5088815;28;20016;-66
2022/08/07 02:16:36;;;;;;;1.83;0.95;;;;;;;;;;5081133;28;20020;-67
2022/08/07 02:19:03;;;;;;;5.15;1.30;;;;;;;;;;5089617;28;20095;-66
2022/08/07 02:21:28;;;;;;;5.55;1.52;;;;;;;;;;5081295;28;20020;-71
2022/08/07 02:23:53;;;;;;;2.47;1.00;;;;;;;;;;5089107;28;20024;-66
2022/08/07 02:26:19;;;;;;;2.28;1.10;;;;;;;;;;5086484;28;20384;-66
2022/08/07 02:28:45;;;;;;;2.67;1.35;;;;;;;;;;5089973;28;20035;-69
2022/08/07 02:31:11;;;;;;;3.17;1.25;;;;;;;;;;5086172;28;20031;-70
2022/08/07 02:33:37;;;;;;;2.22;0.93;;;;;;;;;;5083176;28;20019;-70
2022/08/07 02:36:03;;;;;;;3.55;1.00;;;;;;;;;;5082214;28;20157;-71
2022/08/07 02:38:30;;;;;;;5.03;1.40;;;;;;;;;;5090106;28;20610;-70
2022/08/07 02:40:56;;;;;;;2.35;1.20;;;;;;;;;;5087707;28;20032;-68
2022/08/07 02:43:21;;;;;;;4.30;1.55;;;;;;;;;;5089386;28;20024;-68
2022/08/07 02:45:48;;;;;;;4.50;1.98;;;;;;;;;;5085751;28;20054;-68
2022/08/07 02:48:13;;;;;;;2.08;1.25;;;;;;;;;;5083094;28;20016;-68
2022/08/07 02:50:40;;;;;;;3.75;1.38;;;;;;;;;;5080731;28;20035;-66
2022/08/07 02:53:06;;;;;;;1.30;1.00;;;;;;;;;;5089019;28;20024;-66
2022/08/07 02:55:34;;;;;;;2.30;1.20;;;;;;;;;;5087392;28;20024;-68
2022/08/07 02:58:03;;;;;;;2.67;1.40;;;;;;;;;;5089095;28;20043;-68
2022/08/07 03:00:29;;;;;;;4.50;1.50;;;;;;;;;;5083835;28;20041;-68
2022/08/07 03:02:55;;;;;;;3.45;1.08;;;;;;;;;;5086246;28;20350;-68
2022/08/07 03:05:21;;;;;;;2.50;1.13;;;;;;;;;;5084210;28;20012;-68
2022/08/07 03:07:47;;;;;;;3.65;1.40;;;;;;;;;;5084122;28;20077;-68
2022/08/07 03:10:12;;;;;;;1.67;0.85;;;;;;;;;;5083648;28;20012;-68
2022/08/07 03:12:38;;;;;;;2.35;0.93;;;;;;;;;;5089089;28;20447;-68
2022/08/07 03:15:04;;;;;;;4.78;1.50;;;;;;;;;;5081956;28;20020;-68
2022/08/07 03:17:31;;;;;;;1.40;1.02;;;;;;;;;;5081096;28;20031;-68
2022/08/07 03:19:56;;;;;;;2.50;1.45;;;;;;;;;;5087653;28;20032;-68
2022/08/07 03:22:23;;;;;;;4.40;1.42;;;;;;;;;;5082663;28;20027;-68
2022/08/07 03:24:48;;;;;;;2.47;1.05;;;;;;;;;;5087107;28;20494;-68
2022/08/07 03:27:14;;;;;;;2.03;1.25;;;;;;;;;;5080456;28;20016;-67
2022/08/07 03:29:41;;;;;;;2.10;1.52;;;;;;;;;;5084201;28;20055;-69
2022/08/07 03:32:09;;;;;;;6.25;1.48;;;;;;;;;;5088372;28;20074;-68
2022/08/07 03:34:35;;;;;;;2.60;1.13;;;;;;;;;;5085060;28;20040;-68
2022/08/07 03:37:02;;;;;;;1.42;0.90;;;;;;;;;;5084923;28;20439;-68
2022/08/07 03:39:28;;;;;;;1.88;1.10;;;;;;;;;;5087776;28;20027;-68
2022/08/07 03:41:53;;;;;;;3.50;1.50;;;;;;;;;;5085972;28;20019;-67
2022/08/07 03:44:19;;;;;;;2.13;1.23;;;;;;;;;;5083923;28;20365;-68
2022/08/07 03:46:44;;;;;;;3.30;1.27;;;;;;;;;;5085297;28;20072;-68
2022/08/07 03:49:10;;;;;;;4.28;1.40;;;;;;;;;;5082535;28;20067;-68
2022/08/07 03:51:36;;;;;;;4.68;1.45;;;;;;;;;;5082844;28;20028;-68
2022/08/07 03:54:01;;;;;;;6.47;1.50;;;;;;;;;;5090288;28;20418;-68
2022/08/07 03:56:29;;;;;;;3.03;1.88;;;;;;;;;;5083833;28;20020;-67
2022/08/07 03:58:54;;;;;;;3.72;1.38;;;;;;;;;;5088500;28;20012;-68
2022/08/07 04:01:20;;;;;;;3.00;1.42;;;;;;;;;;5085331;28;20456;-68
2022/08/07 04:03:45;;;;;;;3.30;1.15;;;;;;;;;;5089346;28;20024;-68
2022/08/07 04:06:11;;;;;;;2.33;1.45;;;;;;;;;;5080465;28;20024;-68
2022/08/07 04:08:38;;;;;;;3.53;1.25;;;;;;;;;;5085199;28;20526;-68
2022/08/07 04:11:03;;;;;;;2.45;1.60;;;;;;;;;;5084306;28;20024;-68
2022/08/07 04:13:28;;;;;;;2.42;1.30;;;;;;;;;;5086630;28;20464;-69
2022/08/07 04:15:54;;;;;;;3.38;1.25;;;;;;;;;;5084856;28;20101;-69
2022/08/07 04:18:19;;;;;;;3.35;1.95;;;;;;;;;;5086376;28;20150;-70
2022/08/07 04:20:44;;;;;;;3.60;1.30;;;;;;;;;;5081305;28;20036;-68
2022/08/07 04:23:10;;;;;;;4.30;1.38;;;;;;;;;;5085330;28;20082;-69
2022/08/07 04:25:37;;;;;;;2.92;1.25;;;;;;;;;;5082760;28;20020;-69
2022/08/07 04:28:03;;;;;;;2.42;1.30;;;;;;;;;;5083717;28;20012;-69
2022/08/07 04:30:28;;;;;;;2.45;1.42;;;;;;;;;;5086765;28;20069;-68
2022/08/07 04:32:53;;;;;;;2.47;1.20;;;;;;;;;;5084960;28;20611;-68
2022/08/07 04:35:18;;;;;;;3.55;1.45;;;;;;;;;;5083846;28;20301;-70
2022/08/07 04:37:44;;;;;;;2.75;1.35;;;;;;;;;;5088869;28;20028;-69
2022/08/07 04:40:09;;;;;;;2.83;1.30;;;;;;;;;;5080443;28;20024;-69
2022/08/07 04:42:34;;;;;;;3.95;1.08;;;;;;;;;;5069762;28;20016;-68
2022/08/07 04:45:00;;;;;;;5.00;1.57;;;;;;;;;;5083915;28;20446;-69
2022/08/07 04:47:29;;;;;;;3.65;1.10;;;;;;;;;;5088159;22;20341;-88
2022/08/07 04:50:04;;;;;;;2.20;1.10;;;;;;;;;;5069780;28;20468;-88
2022/08/07 04:52:38;;;;;;;1.70;1.30;;;;;;;;;;5062474;28;20016;-88
2022/08/07 04:55:06;;;;;;;2.00;1.25;;;;;;;;;;5065526;28;20035;-88
2022/08/07 04:57:36;;;;;;;1.80;1.20;;;;;;;;;;5061430;28;20460;-88
2022/08/07 05:00:10;;;;;;;2.42;1.13;;;;;;;;;;5045256;28;20420;-87
2022/08/07 05:02:44;;;;;;;4.15;1.27;;;;;;;;;;5068099;28;20077;-88
2022/08/07 05:05:09;;;;;;;2.40;1.10;;;;;;;;;;5042238;28;20266;-88
2022/08/07 05:07:41;;;;;;;1.55;0.90;;;;;;;;;;5045469;28;20173;-88
2022/08/07 05:10:20;;;;;;;1.02;0.90;;;;;;;;;;5045792;28;20028;-87
2022/08/07 05:12:54;;;;;;;2.72;1.40;;;;;;;;;;5040650;28;20228;-89
2022/08/07 05:15:30;;;;;;;3.78;1.00;;;;;;;;;;5043707;28;20722;-86
2022/08/07 05:17:57;;;;;;;4.45;1.10;;;;;;;;;;5065475;28;20047;-88
2022/08/07 05:20:25;;;;;;;3.70;1.20;;;;;;;;;;5068008;28;20055;-87
2022/08/07 05:22:53;;;;;;;3.38;1.40;;;;;;;;;;5046054;28;20051;-88
2022/08/07 05:25:20;;;;;;;1.88;1.30;;;;;;;;;;5040757;28;20021;-88
2022/08/07 05:27:46;;;;;;;3.38;1.27;;;;;;;;;;5044007;28;20031;-88
2022/08/07 05:30:12;;;;;;;1.77;1.10;;;;;;;;;;5066399;28;20020;-88
2022/08/07 05:32:38;;;;;;;2.60;1.27;;;;;;;;;;5064087;28;20016;-88
2022/08/07 05:35:05;;;;;;;8.07;1.17;;;;;;;;;;5046873;28;20020;-86
2022/08/07 05:37:30;;;;;;;2.20;1.10;;;;;;;;;;5043263;28;20059;-88
2022/08/07 05:39:55;;;;;;;5.07;1.20;;;;;;;;;;5044658;28;20049;-88
2022/08/07 05:42:21;;;;;;;3.67;1.00;;;;;;;;;;5060348;28;20066;-87
2022/08/07 05:44:46;;;;;;;2.70;1.48;;;;;;;;;;5048602;28;20020;-88
2022/08/07 05:47:12;;;;;;;2.97;1.10;;;;;;;;;;5062044;28;20043;-88
2022/08/07 05:49:38;;;;;;;2.38;0.85;;;;;;;;;;5046774;28;20026;-88
2022/08/07 05:52:04;;;;;;;1.70;0.60;;;;;;;;;;5039253;28;20017;-87
2022/08/07 05:54:29;;;;;;;4.07;0.90;;;;;;;;;;5039551;28;20024;-88
2022/08/07 05:56:55;;;;;;;1.88;0.85;;;;;;;;;;5045240;28;20614;-87
2022/08/07 05:59:21;;;;;;;1.63;0.90;;;;;;;;;;5049457;28;20067;-87
2022/08/07 06:01:48;;;;;;;2.45;1.00;;;;;;;;;;5036899;28;20527;-88
2022/08/07 06:04:14;;;;;;;5.75;1.00;;;;;;;;;;5040781;28;20032;-88
2022/08/07 06:06:39;;;;;;;1.95;0.80;;;;;;;;;;5045727;28;20038;-87
2022/08/07 06:09:04;;;;;;;0.98;0.73;;;;;;;;;;5041595;28;20025;-87
2022/08/07 06:11:30;;;;;;;4.15;1.20;;;;;;;;;;5044468;28;20377;-87
2022/08/07 06:13:55;;;;;;;1.77;0.95;;;;;;;;;;5056059;28;20025;-88
2022/08/07 06:16:21;;;;;;;4.00;0.93;;;;;;;;;;5052282;28;20745;-88
2022/08/07 06:18:47;;;;;;;1.88;0.93;;;;;;;;;;5037540;28;20021;-88
2022/08/07 06:21:13;;;;;;;4.20;0.88;;;;;;;;;;5044711;28;20369;-88
2022/08/07 06:23:38;;;;;;;3.65;0.90;;;;;;;;;;5048828;28;20027;-88
2022/08/07 06:26:04;;;;;;;1.58;0.80;;;;;;;;;;5041145;28;20027;-88
2022/08/07 06:28:29;;;;;;;2.75;0.70;;;;;;;;;;5048310;28;20024;-88
2022/08/07 06:30:55;;;;;;;1.30;0.80;;;;;;;;;;5041731;28;20020;-88
2022/08/07 06:33:21;;;;;;;2.03;0.77;;;;;;;;;;5049015;28;20499;-87
2022/08/07 06:35:55;;;;;;;5.38;0.93;;;;;;;;;;5038266;28;20236;-87
2022/08/07 06:38:46;;;;;;;4.53;0.90;;;;;;;;;;5055476;28;20027;-88
2022/08/07 06:41:17;;;;;;;2.45;0.93;;;;;;;;;;5049649;28;20108;-87
2022/08/07 06:44:30;;;;;;;4.55;0.77;;;;;;;;;;5035420;28;20058;-88
2022/08/07 06:47:21;;;;;;;5.88;0.63;;;;;;;;;;4947962;28;20070;-89
2022/08/07 06:50:34;;;;;;;;;;;;;;;;;;;;;
2022/08/07 06:52:55;;;;;;;1.88;0.80;;;;;;;;;;4961822;28;20042;-87
2022/08/07 06:55:26;;;;;;;2.70;1.00;;;;;;;;;;4961964;28;20686;-86
2022/08/07 06:57:54;;;;;;;1.30;0.70;;;;;;;;;;5026704;28;20036;-86
2022/08/07 07:00:22;;;;;;;2.28;0.75;;;;;;;;;;5034075;28;20545;-85
2022/08/07 07:02:59;;;;;;;2.75;0.50;;;;;;;;;;5053422;28;20515;-86
2022/08/07 07:05:31;;;;;;;3.40;0.50;;;;;;;;;;5030648;28;20037;-86
2022/08/07 07:07:56;;;;;;;1.88;0.85;;;;;;;;;;5043751;28;20027;-86
2022/08/07 07:10:29;;;;;;;2.33;0.88;;;;;;;;;;5052073;28;20020;-86
2022/08/07 07:13:13;;;;;;;2.08;0.93;;;;;;;;;;5043029;28;20506;-85
2022/08/07 07:15:41;;;;;;;5.60;0.70;;;;;;;;;;5056902;28;20023;-85
2022/08/07 07:18:15;;;;;;;4.13;0.73;;;;;;;;;;5067082;28;20060;-85
2022/08/07 07:20:47;;;;;;;3.92;0.80;;;;;;;;;;5041027;28;20354;-86
2022/08/07 07:23:14;;;;;;;5.30;0.80;;;;;;;;;;5059711;28;20030;-86
2022/08/07 07:25:56;;;;;;;;;;;;;;;;;;;;;
2022/08/07 07:28:53;;;;;;;3.45;0.50;;;;;;;;;;5064576;28;20017;-86
2022/08/07 07:31:30;;;;;;;2.20;0.38;;;;;;;;;;5067052;28;20025;-87
2022/08/07 07:34:17;;;;;;;1.23;0.43;;;;;;;;;;5047966;28;20028;-86
2022/08/07 07:36:44;;;;;;;3.17;0.70;;;;;;;;;;5065518;28;20028;-86
2022/08/07 07:39:35;;;;;;;4.53;0.98;;;;;;;;;;5032379;28;20025;-87
2022/08/07 07:42:10;;;;;;;2.35;0.70;;;;;;;;;;5040076;28;20025;-87
2022/08/07 07:44:44;;;;;;;1.13;0.50;;;;;;;;;;5047176;28;20028;-87
2022/08/07 07:47:25;;;;;;;0.60;0.43;;;;;;;;;;5029695;28;20518;-87
2022/08/07 07:49:54;;;;;;;1.10;0.40;;;;;;;;;;5031596;28;20131;-86
2022/08/07 07:52:26;;;;;;;3.22;0.75;;;;;;;;;;5045457;28;20029;-87
2022/08/07 07:54:53;;;;;;;1.67;0.40;;;;;;;;;;5037081;28;20498;-87
2022/08/07 07:57:20;;;;;;;3.83;0.60;;;;;;;;;;5062335;28;20009;-87
2022/08/07 07:59:47;;;;;;;0.60;0.40;;;;;;;;;;5061086;28;20016;-87
2022/08/07 08:02:13;;;;;;;3.58;0.60;;;;;;;;;;5045944;28;20078;-87
2022/08/07 08:04:39;;;;;;;1.77;0.40;;;;;;;;;;5047322;28;20028;-88
2022/08/07 08:07:05;;;;;;;2.50;0.60;;;;;;;;;;5049551;28;20035;-88
2022/08/07 08:09:30;;;;;;;1.10;0.50;;;;;;;;;;5045339;28;20554;-88
2022/08/07 08:12:04;;;;;;;0.70;0.40;;;;;;;;;;5061977;28;20465;-90
2022/08/07 08:14:30;;;;;;;1.73;0.40;;;;;;;;;;5044035;28;20107;-90
2022/08/07 08:16:57;;;;;;;5.60;0.50;;;;;;;;;;5048101;28;20025;-90
2022/08/07 08:19:24;;;;;;;2.28;0.65;;;;;;;;;;5070389;28;20070;-90
2022/08/07 08:27:37;;;;;;;1.33;0.50;;;;;;;;;;5061365;28;20090;-89
2022/08/07 08:30:13;;;;;;;0.93;0.35;;;;;;;;;;5047458;28;20193;-90
2022/08/07 08:33:08;;;;;;;1.08;0.45;;;;;;;;;;5049507;28;20027;-89
2022/08/07 08:35:33;;;;;;;0.73;0.30;;;;;;;;;;4975805;28;20034;-89
2022/08/07 08:38:01;;;;;;;1.65;0.47;;;;;;;;;;5061899;28;20167;-89
2022/08/07 08:41:01;;;;;;;1.15;0.30;;;;;;;;;;5040600;28;20032;-89
2022/08/07 08:43:56;;;;;;;1.33;0.47;;;;;;;;;;5002725;28;20113;-89
2022/08/07 08:46:30;;;;;;;;;;;;;;;;;;;;;
2022/08/07 08:49:00;;;;;;;1.48;0.50;;;;;;;;;;5005539;28;20036;-90
2022/08/07 08:51:26;;;;;;;;;;;;;;;;;;5029336;28;20035;-90
2022/08/07 08:53:54;;;;;;;1.23;0.47;;;;;;;;;;5065224;28;19920;-89
2022/08/07 08:56:41;;;;;;;0.90;0.50;;;;;;;;;;5046979;28;20107;-89
2022/08/07 08:59:06;;;;;;;4.90;0.40;;;;;;;;;;5063065;28;20021;-88
2022/08/07 09:01:48;;;;;;;0.97;0.43;;;;;;;;;;5062846;28;20013;-86
2022/08/07 09:04:21;;;;;;;3.17;0.50;;;;;;;;;;5065471;28;20504;-90
2022/08/07 09:06:51;;;;;;;6.57;0.60;;;;;;;;;;5065398;28;20021;-89
2022/08/07 09:09:35;;;;;;;4.53;0.40;;;;;;;;;;5067757;28;20025;-89
2022/08/07 09:12:22;;;;;;;0.70;0.40;;;;;;;;;;5046665;28;20036;-89
2022/08/07 09:14:59;;;;;;;1.23;0.63;;;;;;;;;;5068219;28;20388;-89
2022/08/07 09:17:45;;;;;;;2.45;0.50;;;;;;;;;;5051232;28;20048;-90
2022/08/07 09:20:26;;;;;;;2.38;0.45;;;;;;;;;;5050329;28;20059;-90
2022/08/07 09:22:59;;;;;;;4.25;0.60;;;;;;;;;;5040438;28;20052;-89
2022/08/07 09:25:51;;;;;;;;;;;;;;;;;;;;;
2022/08/07 09:31:59;;;;;;;0.93;0.30;;;;;;;;;;5036592;28;20025;-88
2022/08/07 09:35:12;;;;;;;1.45;0.30;;;;;;;;;;4959387;28;20554;-88
2022/08/07 09:38:22;;;;;;;;;;;;;;;;;;;;;
2022/08/07 09:41:18;;;;;;;;;;;;;;;;;;;;;
2022/08/07 09:44:13;;;;;;;2.78;0.55;;;;;;;;;;4996802;28;20047;-89
2022/08/07 09:47:03;;;;;;;0.80;0.30;;;;;;;;;;4999050;28;20091;-90
2022/08/07 09:49:41;;;;;;;2.92;0.32;;;;;;;;;;4986110;28;20022;-89
2022/08/07 09:52:22;;;;;;;1.90;0.32;;;;;;;;;;5033374;28;20040;-87
2022/08/07 09:54:50;;;;;;;4.65;0.57;;;;;;;;;;5065283;28;20062;-85
2022/08/07 09:57:47;;;;;;;3.78;0.38;;;;;;;;;;5052435;28;20017;-84
2022/08/07 10:00:16;;;;;;;1.00;0.65;;;;;;;;;;5012419;28;20059;-86
2022/08/07 10:02:44;;;;;;;0.55;0.47;;;;;;;;;;5047502;28;20191;-87
2022/08/07 10:05:24;;;;;;;0.55;0.38;;;;;;;;;;5061084;28;20060;-86
2022/08/07 10:07:52;;;;;;;2.03;0.43;;;;;;;;;;5046231;28;20038;-86
2022/08/07 10:10:30;;;;;;;2.92;0.47;;;;;;;;;;5046783;28;20108;-86
2022/08/07 10:12:58;;;;;;;0.95;0.30;;;;;;;;;;5044741;28;20023;-86
2022/08/07 10:15:23;;;;;;;2.58;0.43;;;;;;;;;;5038244;28;20021;-86
2022/08/07 10:17:55;;;;;;;1.92;0.40;;;;;;;;;;5048561;28;20028;-85
2022/08/07 10:20:20;;;;;;;2.67;0.25;;;;;;;;;;5031854;28;20473;-87
2022/08/07 10:22:51;;;;;;;1.13;0.40;;;;;;;;;;5049745;28;20043;-87
2022/08/07 10:25:20;;;;;;;0.40;0.20;;;;;;;;;;5057369;28;20112;-86
2022/08/07 10:28:01;;;;;;;2.10;0.60;;;;;;;;;;5041097;28;20025;-86
2022/08/07 10:30:32;;;;;;;1.35;0.40;;;;;;;;;;5047985;28;20028;-87
2022/08/07 10:33:17;;;;;;;1.92;0.40;;;;;;;;;;5050382;28;20024;-86
2022/08/07 10:35:52;;;;;;;1.52;0.25;;;;;;;;;;5042015;28;20104;-87
2022/08/07 10:38:20;;;;;;;1.90;0.40;;;;;;;;;;5048430;28;20039;-86
2022/08/07 10:40:48;;;;;;;2.10;0.50;;;;;;;;;;5057749;28;20024;-86
2022/08/07 10:43:16;;;;;;;0.30;0.20;;;;;;;;;;5056034;28;20111;-86
2022/08/07 10:45:44;;;;;;;0.70;0.30;;;;;;;;;;5037132;28;20048;-87
2022/08/07 10:48:09;;;;;;;1.75;0.40;;;;;;;;;;5043390;28;20107;-87
2022/08/07 10:50:41;;;;;;;1.23;0.32;;;;;;;;;;5041478;28;20460;-86
2022/08/07 10:53:11;;;;;;;0.80;0.25;;;;;;;;;;5064416;28;20069;-87
2022/08/07 10:55:49;;;;;;;2.63;0.47;;;;;;;;;;5047606;28;20123;-89
2022/08/07 10:58:37;;;;;;;1.70;0.30;;;;;;;;;;5055393;28;20476;-86
2022/08/07 11:01:11;;;;;;;0.80;0.25;;;;;;;;;;5047131;28;20121;-85
2022/08/07 11:03:40;;;;;;;3.30;0.40;;;;;;;;;;5059922;28;20021;-87
2022/08/07 11:06:10;;;;;;;0.93;0.50;;;;;;;;;;5059771;28;20024;-88
2022/08/07 11:08:38;;;;;;;2.45;0.30;;;;;;;;;;5060980;28;20016;-86
2022/08/07 11:11:04;;;;;;;2.15;0.40;;;;;;;;;;5041230;28;20097;-88
2022/08/07 11:13:42;;;;;;;2.23;0.30;;;;;;;;;;5057981;28;20025;-87
2022/08/07 11:16:10;;;;;;;3.83;0.40;;;;;;;;;;5037158;28;21280;-87
2022/08/07 11:18:35;;;;;;;2.20;0.40;;;;;;;;;;5051826;28;20039;-86
2022/08/07 11:21:16;;;;;;;4.83;0.50;;;;;;;;;;5042178;28;20472;-86
2022/08/07 11:23:46;;;;;;;3.20;0.40;;;;;;;;;;5052454;28;20275;-87
2022/08/07 11:26:11;;;;;;;;;;;;;;;;;;5043091;28;20513;-86
2022/08/07 11:28:43;;;;;;;2.28;0.40;;;;;;;;;;5048389;28;19904;-87
2022/08/07 11:31:11;;;;;;;1.67;0.35;;;;;;;;;;5060460;28;20032;-88
2022/08/07 11:33:40;;;;;;;1.40;0.50;;;;;;;;;;5061748;28;20028;-87
2022/08/07 11:36:32;;;;;;;10.98;0.52;;;;;;;;;;5041118;28;20575;-87
2022/08/07 11:39:16;;;;;;;0.98;0.30;;;;;;;;;;5036162;28;20051;-87
2022/08/07 11:42:01;;;;;;;1.00;0.20;;;;;;;;;;5036115;28;20111;-87
2022/08/07 11:44:35;;;;;;;0.65;0.32;;;;;;;;;;5010353;28;20040;-87
2022/08/07 11:47:00;;;;;;;1.23;0.30;;;;;;;;;;5040360;28;20021;-85
2022/08/07 11:49:38;;;;;;;0.35;0.15;;;;;;;;;;5043009;28;20032;-87
2022/08/07 11:52:12;;;;;;;0.63;0.20;;;;;;;;;;5043211;28;20084;-87
2022/08/07 11:54:56;;;;;;;0.70;0.40;;;;;;;;;;5037534;28;20021;-88
2022/08/07 11:57:28;;;;;;;5.78;0.40;;;;;;;;;;5051554;28;20090;-86
2022/08/07 11:59:56;;;;;;;0.68;0.30;;;;;;;;;;5047360;28;20473;-88
2022/08/07 12:02:27;;;;;;;1.25;0.30;;;;;;;;;;5041510;28;20644;-90
2022/08/07 12:05:11;;;;;;;0.95;0.60;;;;;;;;;;5041466;28;20025;-87
2022/08/07 12:07:39;;;;;;;0.88;0.35;;;;;;;;;;5050820;28;20027;-85
2022/08/07 12:10:08;;;;;;;0.47;0.32;;;;;;;;;;5056282;28;20024;-87
2022/08/07 12:12:33;;;;;;;0.60;0.35;;;;;;;;;;5045423;28;20507;-87
2022/08/07 12:14:59;;;;;;;0.50;0.30;;;;;;;;;;5043894;28;20032;-85
2022/08/07 12:17:28;;;;;;;1.30;0.40;;;;;;;;;;5036563;28;20023;-87
2022/08/07 12:20:09;;;;;;;1.25;0.32;;;;;;;;;;5037403;28;20104;-87
2022/08/07 12:22:40;;;;;;;1.58;0.28;;;;;;;;;;5052428;28;20087;-87
2022/08/07 12:27:59;;;;;;;3.67;0.38;;;;;;;;;;5060283;28;20047;-86
2022/08/07 12:30:26;;;;;;;2.47;0.40;;;;;;;;;;5039460;28;20020;-87
2022/08/07 12:32:52;;;;;;;0.85;0.30;;;;;;;;;;5040457;28;20542;-89
2022/08/07 12:35:18;;;;;;;2.10;0.30;;;;;;;;;;5061514;28;20025;-87
2022/08/07 12:37:46;;;;;;;0.40;0.20;;;;;;;;;;5041754;28;20020;-89
2022/08/07 12:40:13;;;;;;;1.35;0.40;;;;;;;;;;5043287;28;20147;-89
2022/08/07 12:42:39;;;;;;;0.93;0.32;;;;;;;;;;5044455;28;20032;-88
2022/08/07 12:45:24;;;;;;;3.42;0.30;;;;;;;;;;5072879;28;20498;-89
2022/08/07 12:47:53;;;;;;;4.60;0.82;;;;;;;;;;5045351;28;20021;-90
2022/08/07 12:50:51;;;;;;;7.10;0.50;;;;;;;;;;5045647;28;20082;-90
2022/08/07 12:53:23;;;;;;;2.75;0.47;;;;;;;;;;5062578;28;20031;-90
2022/08/07 12:55:53;;;;;;;1.55;0.40;;;;;;;;;;5055257;28;20020;-90
2022/08/07 12:58:19;;;;;;;0.75;0.30;;;;;;;;;;5075725;28;20005;-90
2022/08/07 13:00:50;;;;;;;1.17;0.28;;;;;;;;;;5052058;28;20138;-90
2022/08/07 13:03:25;;;;;;;1.02;0.40;;;;;;;;;;5037064;28;20021;-89
2022/08/07 13:06:09;;;;;;;1.67;0.35;;;;;;;;;;5055891;28;20583;-89
2022/08/07 13:08:40;;;;;;;0.80;0.30;;;;;;;;;;5043798;28;20039;-90
2022/08/07 13:11:22;;;;;;;2.10;0.40;;;;;;;;;;5052979;28;20021;-88
2022/08/07 13:14:00;;;;;;;2.15;0.40;;;;;;;;;;5069858;28;20028;-87
2022/08/07 13:16:29;;;;;;;2.05;0.30;;;;;;;;;;5068792;28;20020;-88
2022/08/07 13:18:55;;;;;;;0.80;0.30;;;;;;;;;;5036234;28;20017;-88
2022/08/07 13:21:26;;;;;;;0.43;0.30;;;;;;;;;;5038862;28;20025;-86
2022/08/07 13:23:57;;;;;;;1.05;0.40;;;;;;;;;;5069481;28;20258;-87
2022/08/07 13:26:30;;;;;;;0.73;0.30;;;;;;;;;;5050055;28;20538;-87
2022/08/07 13:28:58;;;;;;;0.70;0.30;;;;;;;;;;5065212;28;20404;-86
2022/08/07 13:31:32;;;;;;;1.33;0.43;;;;;;;;;;5049356;28;20046;-89
2022/08/07 13:34:01;;;;;;;0.40;0.40;;;;;;;;;;5064681;28;20051;-87
2022/08/07 13:36:33;;;;;;;1.27;0.35;;;;;;;;;;5040518;28;20035;-86
2022/08/07 13:39:17;;;;;;;0.22;0.20;;;;;;;;;;5049778;28;20069;-87
2022/08/07 13:41:50;;;;;;;1.88;0.30;;;;;;;;;;5054831;28;20020;-87
2022/08/07 13:44:20;;;;;;;2.20;0.43;;;;;;;;;;5052536;28;20012;-86
2022/08/07 13:46:46;;;;;;;0.50;0.20;;;;;;;;;;5045928;28;20085;-87
2022/08/07 13:49:15;;;;;;;2.05;0.32;;;;;;;;;;5040235;28;20017;-89
2022/08/07 13:51:41;;;;;;;3.20;2.00;;;;;;;;;;5056174;28;20137;-88
2022/08/07 13:54:10;;;;;;;1.63;0.80;;;;;;;;;;5033376;28;20021;-86
2022/08/07 13:56:36;;;;;;;2.90;1.00;;;;;;;;;;5056660;28;20100;-88
2022/08/07 13:59:03;;;;;;;1.75;0.43;;;;;;;;;;5033809;28;20475;-87
2022/08/07 14:01:51;;;;;;;2.72;0.43;;;;;;;;;;5039639;28;20017;-86
2022/08/07 14:04:17;;;;;;;25.35;9.55;;;;;;;;;;5053209;28;20116;-87
2022/08/07 14:06:44;;;;;;;0.82;0.30;;;;;;;;;;5064265;28;20474;-87
2022/08/07 14:09:15;;;;;;;3.13;0.60;;;;;;;;;;5046084;28;20120;-86
2022/08/07 14:11:45;;;;;;;1.05;0.60;;;;;;;;;;5065596;28;20178;-88
2022/08/07 14:14:11;;;;;;;2.85;1.33;;;;;;;;;;5051753;28;20029;-87
2022/08/07 14:16:39;;;;;;;1.90;0.47;;;;;;;;;;5063834;28;20020;-88
2022/08/07 14:19:10;;;;;;;1.08;0.50;;;;;;;;;;5052906;28;20010;-87
2022/08/07 14:21:39;;;;;;;3.75;0.50;;;;;;;;;;5044677;28;20108;-87
2022/08/07 14:24:11;;;;;;;1.75;0.60;;;;;;;;;;5041106;28;20055;-87
2022/08/07 14:26:39;;;;;;;1.13;0.20;;;;;;;;;;5049628;28;20027;-87
2022/08/07 14:29:07;;;;;;;2.60;0.40;;;;;;;;;;5066560;28;20048;-87
2022/08/07 14:31:33;;;;;;;3.42;0.38;;;;;;;;;;5050434;28;20143;-88
2022/08/07 14:33:58;;;;;;;0.88;0.40;;;;;;;;;;5052115;28;20031;-87
2022/08/07 14:36:24;;;;;;;1.10;0.30;;;;;;;;;;5047594;28;20017;-86
2022/08/07 14:38:50;;;;;;;1.88;0.60;;;;;;;;;;5049113;28;20389;-85
2022/08/07 14:41:24;;;;;;;1.27;0.43;;;;;;;;;;5066724;28;20038;-86
2022/08/07 14:43:50;;;;;;;0.55;0.30;;;;;;;;;;5055359;28;20028;-86
2022/08/07 14:46:17;;;;;;;0.50;0.28;;;;;;;;;;5046842;28;20024;-87
2022/08/07 14:48:45;;;;;;;1.35;0.30;;;;;;;;;;5039042;28;20038;-86
2022/08/07 14:51:12;;;;;;;2.75;0.52;;;;;;;;;;5056300;28;20033;-86
2022/08/07 14:53:39;;;;;;;1.30;0.50;;;;;;;;;;5046216;28;20017;-86
2022/08/07 14:56:06;;;;;;;0.70;0.40;;;;;;;;;;5048566;28;20047;-87
2022/08/07 14:58:34;;;;;;;1.27;0.30;;;;;;;;;;5034786;28;20167;-87
2022/08/07 15:01:00;;;;;;;1.92;0.70;;;;;;;;;;5036108;28;20395;-88
2022/08/07 15:03:26;;;;;;;3.70;0.57;;;;;;;;;;5032480;28;20016;-86
2022/08/07 15:05:51;;;;;;;1.25;0.50;;;;;;;;;;5053006;28;20012;-86
2022/08/07 15:08:36;;;;;;;4.72;0.40;;;;;;;;;;5060031;28;20554;-86
2022/08/07 15:11:05;;;;;;;5.68;1.50;;;;;;;;;;5033385;28;20013;-85
2022/08/07 15:13:31;;;;;;;2.60;0.30;;;;;;;;;;5031829;28;20062;-86
2022/08/07 15:16:05;;;;;;;2.13;0.50;;;;;;;;;;5031735;28;20495;-86
2022/08/07 15:18:39;;;;;;;1.02;0.30;;;;;;;;;;5044615;28;20029;-87